sensor_id;sensor_type;location;lat;lon;timestamp;temperature;humidity
6164;DHT22;3114;48.362;10.994;2023-05-10T00:01:34;14.90;99.90
6164;DHT22;3114;48.362;10.994;2023-05-10T00:04:03;15.00;99.90
6164;DHT22;3114;48.362;10.994;2023-05-10T00:06:30;15.10;99.90
6164;DHT22;3114;48.362;10.994;2023-05-10T00:08:57;14.90;99.90
6164;DHT22;3114;48.362;10.994;2023-05-10T00:11:24;14.90;99.90
6164;DHT22;3114;48.362;10.994;2023-05-10T00:13:50;14.80;99.90
6164;DHT22;3114;48.362;10.994;2023-05-10T00:16:17;14.80;99.90
6164;DHT22;3114;48.362;10.994;2023-05-10T00:18:44;14.70;99.90
6164;DHT22;3114;48.362;10.994;2023-05-10T00:21:12;14.80;99.90
6164;DHT22;3114;48.362;10.994;2023-05-10T00:23:40;14.70;99.90
6164;DHT22;3114;48.362;10.994;2023-05-10T00:26:07;14.80;99.90
6164;DHT22;3114;48.362;10.994;2023-05-10T00:28:34;14.80;99.90
6164;DHT22;3114;48.362;10.994;2023-05-10T00:31:00;14.80;99.90
6164;DHT22;3114;48.362;10.994;2023-05-10T00:33:27;14.90;99.90
6164;DHT22;3114;48.362;10.994;2023-05-10T00:35:54;14.90;99.90
6164;DHT22;3114;48.362;10.994;2023-05-10T00:38:22;15.00;99.90
6164;DHT22;3114;48.362;10.994;2023-05-10T00:40:49;15.00;99.90
6164;DHT22;3114;48.362;10.994;2023-05-10T00:43:16;14.90;99.90
6164;DHT22;3114;48.362;10.994;2023-05-10T00:45:43;14.80;99.90
6164;DHT22;3114;48.362;10.994;2023-05-10T00:48:11;14.80;99.90
6164;DHT22;3114;48.362;10.994;2023-05-10T00:50:38;14.60;99.90
6164;DHT22;3114;48.362;10.994;2023-05-10T00:53:05;14.70;99.90
6164;DHT22;3114;48.362;10.994;2023-05-10T00:55:34;14.80;99.90
6164;DHT22;3114;48.362;10.994;2023-05-10T00:58:00;14.60;99.90
6164;DHT22;3114;48.362;10.994;2023-05-10T01:00:28;14.60;99.90
6164;DHT22;3114;48.362;10.994;2023-05-10T01:02:55;14.60;99.90
6164;DHT22;3114;48.362;10.994;2023-05-10T01:05:22;14.60;99.90
6164;DHT22;3114;48.362;10.994;2023-05-10T01:07:49;14.80;99.90
6164;DHT22;3114;48.362;10.994;2023-05-10T01:10:15;14.70;99.90
6164;DHT22;3114;48.362;10.994;2023-05-10T01:12:46;14.70;99.90
6164;DHT22;3114;48.362;10.994;2023-05-10T01:15:14;14.80;99.90
6164;DHT22;3114;48.362;10.994;2023-05-10T01:17:43;14.70;99.90
6164;DHT22;3114;48.362;10.994;2023-05-10T01:20:12;14.70;99.90
6164;DHT22;3114;48.362;10.994;2023-05-10T01:23:19;14.60;99.90
6164;DHT22;3114;48.362;10.994;2023-05-10T01:29:05;14.50;99.90
6164;DHT22;3114;48.362;10.994;2023-05-10T01:34:41;14.60;99.90
6164;DHT22;3114;48.362;10.994;2023-05-10T01:37:15;14.60;99.90
6164;DHT22;3114;48.362;10.994;2023-05-10T01:39:48;14.70;99.90
6164;DHT22;3114;48.362;10.994;2023-05-10T01:42:19;14.50;99.90
6164;DHT22;3114;48.362;10.994;2023-05-10T01:44:54;14.60;99.90
6164;DHT22;3114;48.362;10.994;2023-05-10T01:47:31;14.50;99.90
6164;DHT22;3114;48.362;10.994;2023-05-10T01:50:03;14.50;99.90
6164;DHT22;3114;48.362;10.994;2023-05-10T01:52:33;14.60;99.90
6164;DHT22;3114;48.362;10.994;2023-05-10T01:55:05;14.40;99.90
6164;DHT22;3114;48.362;10.994;2023-05-10T01:57:34;14.40;99.90
6164;DHT22;3114;48.362;10.994;2023-05-10T02:00:02;14.40;99.90
6164;DHT22;3114;48.362;10.994;2023-05-10T02:02:34;14.40;99.90
6164;DHT22;3114;48.362;10.994;2023-05-10T02:05:04;14.30;99.90
6164;DHT22;3114;48.362;10.994;2023-05-10T02:07:32;14.00;99.90
6164;DHT22;3114;48.362;10.994;2023-05-10T02:10:01;14.20;99.90
6164;DHT22;3114;48.362;10.994;2023-05-10T02:12:29;14.30;99.90
6164;DHT22;3114;48.362;10.994;2023-05-10T02:14:59;14.20;99.90
6164;DHT22;3114;48.362;10.994;2023-05-10T02:17:28;14.20;99.90
6164;DHT22;3114;48.362;10.994;2023-05-10T02:19:59;14.30;99.90
6164;DHT22;3114;48.362;10.994;2023-05-10T02:22:27;14.10;99.90
6164;DHT22;3114;48.362;10.994;2023-05-10T02:24:54;14.30;99.90
6164;DHT22;3114;48.362;10.994;2023-05-10T02:27:23;14.20;99.90
6164;DHT22;3114;48.362;10.994;2023-05-10T02:29:51;14.10;99.90
6164;DHT22;3114;48.362;10.994;2023-05-10T02:32:19;14.10;99.90
6164;DHT22;3114;48.362;10.994;2023-05-10T02:34:48;14.00;99.90
6164;DHT22;3114;48.362;10.994;2023-05-10T02:37:19;14.00;99.90
6164;DHT22;3114;48.362;10.994;2023-05-10T02:39:47;14.00;99.90
6164;DHT22;3114;48.362;10.994;2023-05-10T02:42:17;14.00;99.90
6164;DHT22;3114;48.362;10.994;2023-05-10T02:44:48;13.90;99.90
6164;DHT22;3114;48.362;10.994;2023-05-10T02:47:15;13.90;99.90
6164;DHT22;3114;48.362;10.994;2023-05-10T02:49:42;13.90;99.90
6164;DHT22;3114;48.362;10.994;2023-05-10T02:52:09;13.80;99.90
6164;DHT22;3114;48.362;10.994;2023-05-10T02:54:43;13.90;99.90
6164;DHT22;3114;48.362;10.994;2023-05-10T02:57:15;14.00;99.90
6164;DHT22;3114;48.362;10.994;2023-05-10T02:59:43;13.90;99.90
6164;DHT22;3114;48.362;10.994;2023-05-10T03:02:12;13.90;99.90
6164;DHT22;3114;48.362;10.994;2023-05-10T03:04:39;13.90;99.90
6164;DHT22;3114;48.362;10.994;2023-05-10T03:07:06;13.80;99.90
6164;DHT22;3114;48.362;10.994;2023-05-10T03:09:34;13.60;99.90
6164;DHT22;3114;48.362;10.994;2023-05-10T03:12:07;13.70;99.90
6164;DHT22;3114;48.362;10.994;2023-05-10T03:14:48;13.80;99.90
6164;DHT22;3114;48.362;10.994;2023-05-10T03:17:23;13.70;99.90
6164;DHT22;3114;48.362;10.994;2023-05-10T03:19:54;13.70;99.90
6164;DHT22;3114;48.362;10.994;2023-05-10T03:22:25;13.80;99.90
6164;DHT22;3114;48.362;10.994;2023-05-10T03:24:54;13.70;99.90
6164;DHT22;3114;48.362;10.994;2023-05-10T03:27:25;13.70;99.90
6164;DHT22;3114;48.362;10.994;2023-05-10T03:29:54;13.70;99.90
6164;DHT22;3114;48.362;10.994;2023-05-10T03:32:21;13.70;99.90
6164;DHT22;3114;48.362;10.994;2023-05-10T03:34:49;13.70;99.90
6164;DHT22;3114;48.362;10.994;2023-05-10T03:37:15;13.70;99.90
6164;DHT22;3114;48.362;10.994;2023-05-10T03:39:42;13.60;99.90
6164;DHT22;3114;48.362;10.994;2023-05-10T03:42:09;13.70;99.90
6164;DHT22;3114;48.362;10.994;2023-05-10T03:44:39;13.80;99.90
6164;DHT22;3114;48.362;10.994;2023-05-10T03:47:05;13.80;99.90
6164;DHT22;3114;48.362;10.994;2023-05-10T03:49:32;13.60;99.90
6164;DHT22;3114;48.362;10.994;2023-05-10T03:51:59;13.70;99.90
6164;DHT22;3114;48.362;10.994;2023-05-10T03:54:26;13.70;99.90
6164;DHT22;3114;48.362;10.994;2023-05-10T03:56:53;13.60;99.90
6164;DHT22;3114;48.362;10.994;2023-05-10T03:59:20;13.60;99.90
6164;DHT22;3114;48.362;10.994;2023-05-10T04:01:48;13.40;99.90
6164;DHT22;3114;48.362;10.994;2023-05-10T04:04:15;13.30;99.90
6164;DHT22;3114;48.362;10.994;2023-05-10T04:06:43;13.10;99.90
6164;DHT22;3114;48.362;10.994;2023-05-10T04:09:10;13.20;99.90
6164;DHT22;3114;48.362;10.994;2023-05-10T04:11:37;13.30;99.90
6164;DHT22;3114;48.362;10.994;2023-05-10T04:14:04;13.40;99.90
6164;DHT22;3114;48.362;10.994;2023-05-10T04:16:31;13.30;99.90
6164;DHT22;3114;48.362;10.994;2023-05-10T04:18:59;13.40;99.90
6164;DHT22;3114;48.362;10.994;2023-05-10T04:21:26;13.10;99.90
6164;DHT22;3114;48.362;10.994;2023-05-10T04:23:53;13.10;99.90
6164;DHT22;3114;48.362;10.994;2023-05-10T04:26:20;13.20;99.90
6164;DHT22;3114;48.362;10.994;2023-05-10T04:28:47;13.30;99.90
6164;DHT22;3114;48.362;10.994;2023-05-10T04:31:14;13.20;99.90
6164;DHT22;3114;48.362;10.994;2023-05-10T04:33:41;13.30;99.90
6164;DHT22;3114;48.362;10.994;2023-05-10T04:36:09;13.20;99.90
6164;DHT22;3114;48.362;10.994;2023-05-10T04:38:36;13.20;99.90
6164;DHT22;3114;48.362;10.994;2023-05-10T04:41:07;13.20;99.90
6164;DHT22;3114;48.362;10.994;2023-05-10T04:43:34;13.40;99.90
6164;DHT22;3114;48.362;10.994;2023-05-10T04:46:01;13.40;99.90
6164;DHT22;3114;48.362;10.994;2023-05-10T04:48:28;13.40;99.90
6164;DHT22;3114;48.362;10.994;2023-05-10T04:50:55;13.70;99.90
6164;DHT22;3114;48.362;10.994;2023-05-10T04:53:23;13.70;99.90
6164;DHT22;3114;48.362;10.994;2023-05-10T04:55:50;13.70;99.90
6164;DHT22;3114;48.362;10.994;2023-05-10T04:58:17;13.70;99.90
6164;DHT22;3114;48.362;10.994;2023-05-10T05:00:44;13.70;99.90
6164;DHT22;3114;48.362;10.994;2023-05-10T05:03:11;13.80;99.90
6164;DHT22;3114;48.362;10.994;2023-05-10T05:05:38;13.70;99.90
6164;DHT22;3114;48.362;10.994;2023-05-10T05:08:04;13.70;99.90
6164;DHT22;3114;48.362;10.994;2023-05-10T05:10:33;13.50;99.90
6164;DHT22;3114;48.362;10.994;2023-05-10T05:13:00;13.60;99.90
6164;DHT22;3114;48.362;10.994;2023-05-10T05:15:27;13.70;99.90
6164;DHT22;3114;48.362;10.994;2023-05-10T05:17:55;13.60;99.90
6164;DHT22;3114;48.362;10.994;2023-05-10T05:20:22;13.60;99.90
6164;DHT22;3114;48.362;10.994;2023-05-10T05:22:49;13.60;99.90
6164;DHT22;3114;48.362;10.994;2023-05-10T05:25:15;13.60;99.90
6164;DHT22;3114;48.362;10.994;2023-05-10T05:27:44;13.80;99.90
6164;DHT22;3114;48.362;10.994;2023-05-10T05:30:11;13.90;99.90
6164;DHT22;3114;48.362;10.994;2023-05-10T05:32:38;14.20;99.90
6164;DHT22;3114;48.362;10.994;2023-05-10T05:35:05;14.20;99.90
6164;DHT22;3114;48.362;10.994;2023-05-10T05:37:32;14.10;99.90
6164;DHT22;3114;48.362;10.994;2023-05-10T05:39:59;14.10;99.90
6164;DHT22;3114;48.362;10.994;2023-05-10T05:42:27;14.10;99.90
6164;DHT22;3114;48.362;10.994;2023-05-10T05:44:55;14.10;99.90
6164;DHT22;3114;48.362;10.994;2023-05-10T05:47:22;14.20;99.90
6164;DHT22;3114;48.362;10.994;2023-05-10T05:49:49;14.30;99.90
6164;DHT22;3114;48.362;10.994;2023-05-10T05:52:16;14.40;99.90
6164;DHT22;3114;48.362;10.994;2023-05-10T05:54:43;14.40;99.90
6164;DHT22;3114;48.362;10.994;2023-05-10T05:57:10;14.20;99.90
6164;DHT22;3114;48.362;10.994;2023-05-10T05:59:36;14.10;99.90
6164;DHT22;3114;48.362;10.994;2023-05-10T06:02:08;13.80;99.90
6164;DHT22;3114;48.362;10.994;2023-05-10T06:04:35;13.90;99.90
6164;DHT22;3114;48.362;10.994;2023-05-10T06:07:02;13.70;99.90
6164;DHT22;3114;48.362;10.994;2023-05-10T06:09:29;13.70;99.90
6164;DHT22;3114;48.362;10.994;2023-05-10T06:11:56;13.80;99.90
6164;DHT22;3114;48.362;10.994;2023-05-10T06:14:23;13.60;99.90
6164;DHT22;3114;48.362;10.994;2023-05-10T06:16:49;13.40;99.90
6164;DHT22;3114;48.362;10.994;2023-05-10T06:19:18;13.50;99.90
6164;DHT22;3114;48.362;10.994;2023-05-10T06:21:45;13.70;99.90
6164;DHT22;3114;48.362;10.994;2023-05-10T06:24:11;13.80;99.90
6164;DHT22;3114;48.362;10.994;2023-05-10T06:26:38;13.60;99.90
6164;DHT22;3114;48.362;10.994;2023-05-10T06:29:05;13.70;99.90
6164;DHT22;3114;48.362;10.994;2023-05-10T06:31:32;13.60;99.90
6164;DHT22;3114;48.362;10.994;2023-05-10T06:33:59;13.70;99.90
6164;DHT22;3114;48.362;10.994;2023-05-10T06:36:27;13.70;99.90
6164;DHT22;3114;48.362;10.994;2023-05-10T06:38:54;13.70;99.90
6164;DHT22;3114;48.362;10.994;2023-05-10T06:41:21;13.90;99.90
6164;DHT22;3114;48.362;10.994;2023-05-10T06:43:48;13.80;99.90
6164;DHT22;3114;48.362;10.994;2023-05-10T06:46:15;13.90;99.90
6164;DHT22;3114;48.362;10.994;2023-05-10T06:48:41;14.00;99.90
6164;DHT22;3114;48.362;10.994;2023-05-10T06:51:08;14.00;99.90
6164;DHT22;3114;48.362;10.994;2023-05-10T06:53:37;13.80;99.90
6164;DHT22;3114;48.362;10.994;2023-05-10T06:56:04;13.90;99.90
6164;DHT22;3114;48.362;10.994;2023-05-10T06:58:30;14.00;99.90
6164;DHT22;3114;48.362;10.994;2023-05-10T07:01:02;14.00;99.90
6164;DHT22;3114;48.362;10.994;2023-05-10T07:03:29;14.00;99.90
6164;DHT22;3114;48.362;10.994;2023-05-10T07:06:00;14.20;99.90
6164;DHT22;3114;48.362;10.994;2023-05-10T07:08:28;14.20;99.90
6164;DHT22;3114;48.362;10.994;2023-05-10T07:11:01;14.10;99.90
6164;DHT22;3114;48.362;10.994;2023-05-10T07:13:29;13.90;99.90
6164;DHT22;3114;48.362;10.994;2023-05-10T07:15:56;14.00;99.90
6164;DHT22;3114;48.362;10.994;2023-05-10T07:18:23;14.10;99.90
6164;DHT22;3114;48.362;10.994;2023-05-10T07:20:50;14.10;99.90
6164;DHT22;3114;48.362;10.994;2023-05-10T07:23:16;14.30;99.90
6164;DHT22;3114;48.362;10.994;2023-05-10T07:25:45;14.30;99.90
6164;DHT22;3114;48.362;10.994;2023-05-10T07:28:13;14.30;99.90
6164;DHT22;3114;48.362;10.994;2023-05-10T07:30:40;14.40;99.90
6164;DHT22;3114;48.362;10.994;2023-05-10T07:33:08;14.60;99.90
6164;DHT22;3114;48.362;10.994;2023-05-10T07:35:35;14.60;99.90
6164;DHT22;3114;48.362;10.994;2023-05-10T07:38:02;14.70;99.90
6164;DHT22;3114;48.362;10.994;2023-05-10T07:40:29;14.60;99.90
6164;DHT22;3114;48.362;10.994;2023-05-10T07:42:56;14.60;99.90
6164;DHT22;3114;48.362;10.994;2023-05-10T07:45:24;15.10;99.90
6164;DHT22;3114;48.362;10.994;2023-05-10T07:47:51;14.90;99.90
6164;DHT22;3114;48.362;10.994;2023-05-10T07:50:18;14.70;99.90
6164;DHT22;3114;48.362;10.994;2023-05-10T07:52:46;14.60;99.90
6164;DHT22;3114;48.362;10.994;2023-05-10T07:55:13;14.40;99.90
6164;DHT22;3114;48.362;10.994;2023-05-10T07:57:41;14.60;99.90
6164;DHT22;3114;48.362;10.994;2023-05-10T08:00:09;15.00;99.90
6164;DHT22;3114;48.362;10.994;2023-05-10T08:02:40;15.00;99.90
6164;DHT22;3114;48.362;10.994;2023-05-10T08:05:07;14.70;99.90
6164;DHT22;3114;48.362;10.994;2023-05-10T08:07:34;14.60;99.90
6164;DHT22;3114;48.362;10.994;2023-05-10T08:10:01;14.70;99.90
6164;DHT22;3114;48.362;10.994;2023-05-10T08:12:28;15.00;99.90
6164;DHT22;3114;48.362;10.994;2023-05-10T08:14:55;15.30;99.90
6164;DHT22;3114;48.362;10.994;2023-05-10T08:17:22;15.30;99.90
6164;DHT22;3114;48.362;10.994;2023-05-10T08:19:50;14.90;99.90
6164;DHT22;3114;48.362;10.994;2023-05-10T08:22:17;15.00;99.90
6164;DHT22;3114;48.362;10.994;2023-05-10T08:24:44;15.00;99.90
6164;DHT22;3114;48.362;10.994;2023-05-10T08:27:11;15.10;99.90
6164;DHT22;3114;48.362;10.994;2023-05-10T08:29:38;15.00;99.90
6164;DHT22;3114;48.362;10.994;2023-05-10T08:32:05;15.10;99.90
6164;DHT22;3114;48.362;10.994;2023-05-10T08:34:32;15.20;99.90
6164;DHT22;3114;48.362;10.994;2023-05-10T08:37:00;15.20;99.90
6164;DHT22;3114;48.362;10.994;2023-05-10T08:39:27;15.20;99.90
6164;DHT22;3114;48.362;10.994;2023-05-10T08:41:54;15.10;99.90
6164;DHT22;3114;48.362;10.994;2023-05-10T08:44:24;15.40;99.90
6164;DHT22;3114;48.362;10.994;2023-05-10T08:46:53;15.60;99.90
6164;DHT22;3114;48.362;10.994;2023-05-10T08:49:21;15.80;99.90
6164;DHT22;3114;48.362;10.994;2023-05-10T08:51:51;15.80;99.90
6164;DHT22;3114;48.362;10.994;2023-05-10T08:54:21;15.80;99.90
6164;DHT22;3114;48.362;10.994;2023-05-10T08:56:48;15.40;99.90
6164;DHT22;3114;48.362;10.994;2023-05-10T08:59:15;15.20;99.90
6164;DHT22;3114;48.362;10.994;2023-05-10T09:01:42;15.00;99.90
6164;DHT22;3114;48.362;10.994;2023-05-10T09:04:10;14.90;99.90
6164;DHT22;3114;48.362;10.994;2023-05-10T09:06:37;14.90;99.90
6164;DHT22;3114;48.362;10.994;2023-05-10T09:09:05;15.20;99.90
6164;DHT22;3114;48.362;10.994;2023-05-10T09:11:33;15.20;99.90
6164;DHT22;3114;48.362;10.994;2023-05-10T09:14:01;15.40;99.90
6164;DHT22;3114;48.362;10.994;2023-05-10T09:16:28;15.80;99.90
6164;DHT22;3114;48.362;10.994;2023-05-10T09:18:55;15.80;99.90
6164;DHT22;3114;48.362;10.994;2023-05-10T09:21:22;15.80;99.90
6164;DHT22;3114;48.362;10.994;2023-05-10T09:23:49;16.10;99.90
6164;DHT22;3114;48.362;10.994;2023-05-10T09:26:22;16.30;99.90
6164;DHT22;3114;48.362;10.994;2023-05-10T09:28:55;16.20;99.90
6164;DHT22;3114;48.362;10.994;2023-05-10T09:31:22;16.20;99.90
6164;DHT22;3114;48.362;10.994;2023-05-10T09:33:50;15.60;99.90
6164;DHT22;3114;48.362;10.994;2023-05-10T09:36:17;15.30;99.90
6164;DHT22;3114;48.362;10.994;2023-05-10T09:38:45;15.00;99.90
6164;DHT22;3114;48.362;10.994;2023-05-10T09:41:17;15.00;99.90
6164;DHT22;3114;48.362;10.994;2023-05-10T09:43:44;14.90;99.90
6164;DHT22;3114;48.362;10.994;2023-05-10T09:46:12;15.40;99.90
6164;DHT22;3114;48.362;10.994;2023-05-10T09:48:42;16.00;99.90
6164;DHT22;3114;48.362;10.994;2023-05-10T09:51:09;16.60;99.90
6164;DHT22;3114;48.362;10.994;2023-05-10T09:53:36;16.40;99.90
6164;DHT22;3114;48.362;10.994;2023-05-10T09:56:03;16.20;99.90
6164;DHT22;3114;48.362;10.994;2023-05-10T09:58:30;15.80;99.90
6164;DHT22;3114;48.362;10.994;2023-05-10T10:00:57;15.60;99.90
6164;DHT22;3114;48.362;10.994;2023-05-10T10:03:25;15.30;99.90
6164;DHT22;3114;48.362;10.994;2023-05-10T10:05:52;15.20;99.90
6164;DHT22;3114;48.362;10.994;2023-05-10T10:08:21;15.40;99.90
6164;DHT22;3114;48.362;10.994;2023-05-10T10:10:49;15.10;99.90
6164;DHT22;3114;48.362;10.994;2023-05-10T10:13:16;15.10;99.90
6164;DHT22;3114;48.362;10.994;2023-05-10T10:15:43;15.20;99.90
6164;DHT22;3114;48.362;10.994;2023-05-10T10:18:13;15.10;99.90
6164;DHT22;3114;48.362;10.994;2023-05-10T10:20:41;15.10;99.90
6164;DHT22;3114;48.362;10.994;2023-05-10T10:23:08;15.40;99.90
6164;DHT22;3114;48.362;10.994;2023-05-10T10:25:35;15.50;99.90
6164;DHT22;3114;48.362;10.994;2023-05-10T10:28:12;15.50;99.90
6164;DHT22;3114;48.362;10.994;2023-05-10T10:30:45;15.30;99.90
6164;DHT22;3114;48.362;10.994;2023-05-10T10:33:39;14.70;99.90
6164;DHT22;3114;48.362;10.994;2023-05-10T10:36:08;14.40;99.90
6164;DHT22;3114;48.362;10.994;2023-05-10T10:38:55;13.80;99.90
6164;DHT22;3114;48.362;10.994;2023-05-10T10:41:32;14.00;99.90
6164;DHT22;3114;48.362;10.994;2023-05-10T10:44:28;14.60;99.90
6164;DHT22;3114;48.362;10.994;2023-05-10T10:47:02;15.20;99.90
6164;DHT22;3114;48.362;10.994;2023-05-10T10:49:31;15.50;99.90
6164;DHT22;3114;48.362;10.994;2023-05-10T10:52:21;15.70;99.90
6164;DHT22;3114;48.362;10.994;2023-05-10T10:54:52;15.70;99.90
6164;DHT22;3114;48.362;10.994;2023-05-10T10:57:19;15.80;99.90
6164;DHT22;3114;48.362;10.994;2023-05-10T10:59:48;15.70;99.90
6164;DHT22;3114;48.362;10.994;2023-05-10T11:02:33;15.80;99.90
6164;DHT22;3114;48.362;10.994;2023-05-10T11:05:10;16.00;99.90
6164;DHT22;3114;48.362;10.994;2023-05-10T11:07:54;16.00;99.90
6164;DHT22;3114;48.362;10.994;2023-05-10T11:10:22;15.90;99.90
6164;DHT22;3114;48.362;10.994;2023-05-10T11:12:53;15.60;99.90
6164;DHT22;3114;48.362;10.994;2023-05-10T11:15:28;15.50;99.90
6164;DHT22;3114;48.362;10.994;2023-05-10T11:17:55;15.50;99.90
6164;DHT22;3114;48.362;10.994;2023-05-10T11:20:22;15.60;99.90
6164;DHT22;3114;48.362;10.994;2023-05-10T11:22:55;15.90;99.90
6164;DHT22;3114;48.362;10.994;2023-05-10T11:25:26;15.90;99.90
6164;DHT22;3114;48.362;10.994;2023-05-10T11:27:54;16.00;99.90
6164;DHT22;3114;48.362;10.994;2023-05-10T11:30:21;16.30;99.90
6164;DHT22;3114;48.362;10.994;2023-05-10T11:32:48;16.20;99.90
6164;DHT22;3114;48.362;10.994;2023-05-10T11:35:15;16.40;99.90
6164;DHT22;3114;48.362;10.994;2023-05-10T11:37:42;16.50;99.90
6164;DHT22;3114;48.362;10.994;2023-05-10T11:40:12;16.60;99.90
6164;DHT22;3114;48.362;10.994;2023-05-10T11:42:40;16.80;99.90
6164;DHT22;3114;48.362;10.994;2023-05-10T11:45:07;16.50;99.90
6164;DHT22;3114;48.362;10.994;2023-05-10T11:47:35;16.20;99.90
6164;DHT22;3114;48.362;10.994;2023-05-10T11:50:03;16.10;99.90
6164;DHT22;3114;48.362;10.994;2023-05-10T11:52:35;16.00;99.90
6164;DHT22;3114;48.362;10.994;2023-05-10T11:55:03;16.00;99.90
6164;DHT22;3114;48.362;10.994;2023-05-10T11:57:31;15.80;99.90
6164;DHT22;3114;48.362;10.994;2023-05-10T11:59:58;15.80;99.90
6164;DHT22;3114;48.362;10.994;2023-05-10T12:02:25;15.80;99.90
6164;DHT22;3114;48.362;10.994;2023-05-10T12:04:52;16.00;99.90
6164;DHT22;3114;48.362;10.994;2023-05-10T12:07:19;16.00;99.90
6164;DHT22;3114;48.362;10.994;2023-05-10T12:10:07;15.90;99.90
6164;DHT22;3114;48.362;10.994;2023-05-10T12:12:39;15.30;99.90
6164;DHT22;3114;48.362;10.994;2023-05-10T12:15:11;15.00;99.90
6164;DHT22;3114;48.362;10.994;2023-05-10T12:17:39;15.30;99.90
6164;DHT22;3114;48.362;10.994;2023-05-10T12:20:13;15.80;99.90
6164;DHT22;3114;48.362;10.994;2023-05-10T12:22:41;16.20;99.90
6164;DHT22;3114;48.362;10.994;2023-05-10T12:25:09;16.30;99.90
6164;DHT22;3114;48.362;10.994;2023-05-10T12:27:39;16.30;99.90
6164;DHT22;3114;48.362;10.994;2023-05-10T12:30:07;15.90;99.90
6164;DHT22;3114;48.362;10.994;2023-05-10T12:32:40;15.00;99.90
6164;DHT22;3114;48.362;10.994;2023-05-10T12:35:08;14.60;99.90
6164;DHT22;3114;48.362;10.994;2023-05-10T12:37:35;14.40;99.90
6164;DHT22;3114;48.362;10.994;2023-05-10T12:40:06;14.10;99.90
6164;DHT22;3114;48.362;10.994;2023-05-10T12:42:34;14.20;99.90
6164;DHT22;3114;48.362;10.994;2023-05-10T12:45:04;14.50;99.90
6164;DHT22;3114;48.362;10.994;2023-05-10T12:47:32;14.70;99.90
6164;DHT22;3114;48.362;10.994;2023-05-10T12:50:00;14.80;99.90
6164;DHT22;3114;48.362;10.994;2023-05-10T12:52:27;15.00;99.90
6164;DHT22;3114;48.362;10.994;2023-05-10T12:54:54;15.10;99.90
6164;DHT22;3114;48.362;10.994;2023-05-10T12:57:21;15.30;99.90
6164;DHT22;3114;48.362;10.994;2023-05-10T12:59:47;15.40;99.90
6164;DHT22;3114;48.362;10.994;2023-05-10T13:02:16;15.60;99.90
6164;DHT22;3114;48.362;10.994;2023-05-10T13:04:44;15.70;99.90
6164;DHT22;3114;48.362;10.994;2023-05-10T13:07:11;15.80;99.90
6164;DHT22;3114;48.362;10.994;2023-05-10T13:09:40;15.70;99.90
6164;DHT22;3114;48.362;10.994;2023-05-10T13:12:07;15.70;99.90
6164;DHT22;3114;48.362;10.994;2023-05-10T13:14:33;15.60;99.90
6164;DHT22;3114;48.362;10.994;2023-05-10T13:17:00;15.30;99.90
6164;DHT22;3114;48.362;10.994;2023-05-10T13:19:28;15.00;99.90
6164;DHT22;3114;48.362;10.994;2023-05-10T13:21:55;14.80;99.90
6164;DHT22;3114;48.362;10.994;2023-05-10T13:24:22;14.60;99.90
6164;DHT22;3114;48.362;10.994;2023-05-10T13:26:49;14.70;99.90
6164;DHT22;3114;48.362;10.994;2023-05-10T13:29:15;14.60;99.90
6164;DHT22;3114;48.362;10.994;2023-05-10T13:31:43;14.50;99.90
6164;DHT22;3114;48.362;10.994;2023-05-10T13:34:10;14.50;99.90
6164;DHT22;3114;48.362;10.994;2023-05-10T13:36:39;14.60;99.90
6164;DHT22;3114;48.362;10.994;2023-05-10T13:39:06;14.80;99.90
6164;DHT22;3114;48.362;10.994;2023-05-10T13:41:32;14.80;99.90
6164;DHT22;3114;48.362;10.994;2023-05-10T13:43:59;14.70;99.90
6164;DHT22;3114;48.362;10.994;2023-05-10T13:46:26;14.80;99.90
6164;DHT22;3114;48.362;10.994;2023-05-10T13:48:53;15.00;99.90
6164;DHT22;3114;48.362;10.994;2023-05-10T13:51:20;15.10;99.90
6164;DHT22;3114;48.362;10.994;2023-05-10T13:53:48;15.20;99.90
6164;DHT22;3114;48.362;10.994;2023-05-10T13:56:15;15.30;99.90
6164;DHT22;3114;48.362;10.994;2023-05-10T13:58:41;15.30;99.90
6164;DHT22;3114;48.362;10.994;2023-05-10T14:01:08;15.40;99.90
6164;DHT22;3114;48.362;10.994;2023-05-10T14:03:35;15.50;99.90
6164;DHT22;3114;48.362;10.994;2023-05-10T14:06:02;15.50;99.90
6164;DHT22;3114;48.362;10.994;2023-05-10T14:08:29;15.50;99.90
6164;DHT22;3114;48.362;10.994;2023-05-10T14:10:57;15.50;99.90
6164;DHT22;3114;48.362;10.994;2023-05-10T14:13:24;15.30;99.90
6164;DHT22;3114;48.362;10.994;2023-05-10T14:15:53;15.30;99.90
6164;DHT22;3114;48.362;10.994;2023-05-10T14:18:20;15.00;99.90
6164;DHT22;3114;48.362;10.994;2023-05-10T14:20:46;14.70;99.90
6164;DHT22;3114;48.362;10.994;2023-05-10T14:23:13;14.30;99.90
6164;DHT22;3114;48.362;10.994;2023-05-10T14:25:40;14.20;99.90
6164;DHT22;3114;48.362;10.994;2023-05-10T14:28:09;13.90;99.90
6164;DHT22;3114;48.362;10.994;2023-05-10T14:30:36;13.60;99.90
6164;DHT22;3114;48.362;10.994;2023-05-10T14:33:03;13.20;99.90
6164;DHT22;3114;48.362;10.994;2023-05-10T14:35:29;13.00;99.90
6164;DHT22;3114;48.362;10.994;2023-05-10T14:37:57;12.90;99.90
6164;DHT22;3114;48.362;10.994;2023-05-10T14:40:24;13.10;99.90
6164;DHT22;3114;48.362;10.994;2023-05-10T14:42:51;12.60;99.90
6164;DHT22;3114;48.362;10.994;2023-05-10T14:45:21;12.70;99.90
6164;DHT22;3114;48.362;10.994;2023-05-10T14:47:48;12.60;99.90
6164;DHT22;3114;48.362;10.994;2023-05-10T14:50:15;12.60;99.90
6164;DHT22;3114;48.362;10.994;2023-05-10T14:52:42;12.60;99.90
6164;DHT22;3114;48.362;10.994;2023-05-10T14:55:10;12.50;99.90
6164;DHT22;3114;48.362;10.994;2023-05-10T14:57:37;12.40;99.90
6164;DHT22;3114;48.362;10.994;2023-05-10T15:00:05;12.50;99.90
6164;DHT22;3114;48.362;10.994;2023-05-10T15:02:33;12.30;99.90
6164;DHT22;3114;48.362;10.994;2023-05-10T15:05:00;12.40;99.90
6164;DHT22;3114;48.362;10.994;2023-05-10T15:07:27;12.30;99.90
6164;DHT22;3114;48.362;10.994;2023-05-10T15:09:53;12.40;99.90
6164;DHT22;3114;48.362;10.994;2023-05-10T15:12:20;12.40;99.90
6164;DHT22;3114;48.362;10.994;2023-05-10T15:14:47;12.40;99.90
6164;DHT22;3114;48.362;10.994;2023-05-10T15:17:14;12.30;99.90
6164;DHT22;3114;48.362;10.994;2023-05-10T15:19:43;12.60;99.90
6164;DHT22;3114;48.362;10.994;2023-05-10T15:22:10;12.50;99.90
6164;DHT22;3114;48.362;10.994;2023-05-10T15:24:37;12.50;99.90
6164;DHT22;3114;48.362;10.994;2023-05-10T15:27:03;12.60;99.90
6164;DHT22;3114;48.362;10.994;2023-05-10T15:29:30;12.80;99.90
6164;DHT22;3114;48.362;10.994;2023-05-10T15:31:58;12.60;99.90
6164;DHT22;3114;48.362;10.994;2023-05-10T15:34:24;12.60;99.90
6164;DHT22;3114;48.362;10.994;2023-05-10T15:36:53;12.60;99.90
6164;DHT22;3114;48.362;10.994;2023-05-10T15:39:19;12.80;99.90
6164;DHT22;3114;48.362;10.994;2023-05-10T15:41:46;12.80;99.90
6164;DHT22;3114;48.362;10.994;2023-05-10T15:44:14;12.90;99.90
6164;DHT22;3114;48.362;10.994;2023-05-10T15:46:42;12.70;99.90
6164;DHT22;3114;48.362;10.994;2023-05-10T15:49:09;12.50;99.90
6164;DHT22;3114;48.362;10.994;2023-05-10T15:51:35;12.40;99.90
6164;DHT22;3114;48.362;10.994;2023-05-10T15:54:04;12.20;99.90
6164;DHT22;3114;48.362;10.994;2023-05-10T15:56:32;12.00;99.90
6164;DHT22;3114;48.362;10.994;2023-05-10T15:58:59;12.10;99.90